Cbeh — BOHM — position and weather

sailwx.info

Track history (hours):
 
Tides and Currents Weather Stations Pressure Air Temp Water Temp Dewpoint Dewpoint Depression Visibility Wind Speed Wind Dir Waves Ship Positions

Cbeh

Last reported at 2017-Feb-25 18:16 UTC. Time now 2017-Feb-26 19:07 UTC.
Position N 38°33' E 122°08'.

Length 222 m; draft 5.4 m.

Type: Wing in ground effect craft. MMSI: 412228000.

Date/timePositionNaut miles runAvg speedWind from/ knotsBaromVisibWave heightAir tempDewpointWater temp
2017-Feb-25 18:16N 38°33' E 122°08'1217.0
2017-Feb-25 17:33N 38°44' E 122°01'8 0.8
2017-Feb-25 07:04N 38°53' E 122°01'4 7.6
2017-Feb-25 06:34N 38°50' E 121°58'2 1.5
2017-Feb-25 05:33N 38°49' E 121°56'1 1.1
2017-Feb-25 04:33N 38°48' E 121°55'1110.7
2017-Feb-25 03:33N 38°40' E 121°47'1515.1
2017-Feb-25 02:33N 38°31' E 121°31'1616.4
2017-Feb-25 01:33N 38°28' E 121°10'1716.6
2017-Feb-25 00:33N 38°34' E 120°51'1717.1
2017-Feb-24 23:33N 38°38' E 120°30'  
Track history (hours):
 
Tides and Currents Weather Stations Pressure Air Temp Water Temp Dewpoint Dewpoint Depression Visibility Wind Speed Wind Dir Waves Ship Positions

Cbeh

Last reported at 2017-Feb-25 18:16 UTC. Time now 2017-Feb-26 19:07 UTC.
Position N 38°33' E 122°08'.

Length 222 m; draft 5.4 m.

Type: Wing in ground effect craft. MMSI: 412228000.

Date/timePositionNaut miles runAvg speedWind from/ knotsBaromVisibWave heightAir tempDewpointWater temp
2017-Feb-25 18:16N 38°33' E 122°08'1217.0
2017-Feb-25 17:33N 38°44' E 122°01'8 0.8
2017-Feb-25 07:04N 38°53' E 122°01'4 7.6
2017-Feb-25 06:34N 38°50' E 121°58'2 1.5
2017-Feb-25 05:33N 38°49' E 121°56'1 1.1
2017-Feb-25 04:33N 38°48' E 121°55'1110.7
2017-Feb-25 03:33N 38°40' E 121°47'1515.1
2017-Feb-25 02:33N 38°31' E 121°31'1616.4
2017-Feb-25 01:33N 38°28' E 121°10'1716.6
2017-Feb-25 00:33N 38°34' E 120°51'1717.1
2017-Feb-24 23:33N 38°38' E 120°30'  

Dump ship's entire track history